sensor_id;sensor_type;location;lat;lon;timestamp;P1;durP1;ratioP1;P2;durP2;ratioP2
2458;SDS011;1241;50.920;6.936;2022-07-22T00:00:12;29.93;;;25.53;;
2458;SDS011;1241;50.920;6.936;2022-07-22T00:02:38;18.43;;;15.90;;
2458;SDS011;1241;50.920;6.936;2022-07-22T00:05:05;14.20;;;12.67;;
2458;SDS011;1241;50.920;6.936;2022-07-22T00:07:31;16.83;;;11.83;;
2458;SDS011;1241;50.920;6.936;2022-07-22T00:09:57;21.57;;;13.70;;
2458;SDS011;1241;50.920;6.936;2022-07-22T00:12:23;14.43;;;10.80;;
2458;SDS011;1241;50.920;6.936;2022-07-22T00:14:49;11.50;;;9.63;;
2458;SDS011;1241;50.920;6.936;2022-07-22T00:17:14;14.97;;;11.03;;
2458;SDS011;1241;50.920;6.936;2022-07-22T00:19:40;14.20;;;10.33;;
2458;SDS011;1241;50.920;6.936;2022-07-22T00:22:06;9.17;;;8.30;;
2458;SDS011;1241;50.920;6.936;2022-07-22T00:24:33;9.83;;;8.67;;
2458;SDS011;1241;50.920;6.936;2022-07-22T00:26:59;10.00;;;8.83;;
2458;SDS011;1241;50.920;6.936;2022-07-22T00:29:24;7.23;;;6.53;;
2458;SDS011;1241;50.920;6.936;2022-07-22T00:31:50;8.90;;;6.63;;
2458;SDS011;1241;50.920;6.936;2022-07-22T00:34:16;8.77;;;7.87;;
2458;SDS011;1241;50.920;6.936;2022-07-22T00:36:42;9.80;;;6.90;;
2458;SDS011;1241;50.920;6.936;2022-07-22T00:39:07;10.63;;;7.00;;
2458;SDS011;1241;50.920;6.936;2022-07-22T00:41:33;9.00;;;7.07;;
2458;SDS011;1241;50.920;6.936;2022-07-22T00:46:25;9.27;;;7.33;;
2458;SDS011;1241;50.920;6.936;2022-07-22T00:48:51;10.73;;;7.37;;
2458;SDS011;1241;50.920;6.936;2022-07-22T00:51:18;14.67;;;8.37;;
2458;SDS011;1241;50.920;6.936;2022-07-22T00:53:45;8.13;;;7.30;;
2458;SDS011;1241;50.920;6.936;2022-07-22T00:56:11;8.73;;;7.50;;
2458;SDS011;1241;50.920;6.936;2022-07-22T00:58:38;10.60;;;7.33;;
2458;SDS011;1241;50.920;6.936;2022-07-22T01:01:04;15.17;;;8.50;;
2458;SDS011;1241;50.920;6.936;2022-07-22T01:03:30;10.50;;;8.10;;
2458;SDS011;1241;50.920;6.936;2022-07-22T01:05:56;9.60;;;8.20;;
2458;SDS011;1241;50.920;6.936;2022-07-22T01:08:22;12.60;;;8.17;;
2458;SDS011;1241;50.920;6.936;2022-07-22T01:10:48;8.13;;;6.93;;
2458;SDS011;1241;50.920;6.936;2022-07-22T01:13:14;11.77;;;7.67;;
2458;SDS011;1241;50.920;6.936;2022-07-22T01:15:40;10.20;;;7.80;;
2458;SDS011;1241;50.920;6.936;2022-07-22T01:18:06;16.63;;;10.67;;
2458;SDS011;1241;50.920;6.936;2022-07-22T01:20:32;13.40;;;9.20;;
2458;SDS011;1241;50.920;6.936;2022-07-22T01:22:59;11.17;;;9.80;;
2458;SDS011;1241;50.920;6.936;2022-07-22T01:25:25;9.67;;;8.30;;
2458;SDS011;1241;50.920;6.936;2022-07-22T01:27:52;12.00;;;8.20;;
2458;SDS011;1241;50.920;6.936;2022-07-22T01:30:18;9.57;;;8.20;;
2458;SDS011;1241;50.920;6.936;2022-07-22T01:32:44;12.53;;;7.30;;
2458;SDS011;1241;50.920;6.936;2022-07-22T01:35:09;11.30;;;8.20;;
2458;SDS011;1241;50.920;6.936;2022-07-22T01:37:36;16.63;;;8.63;;
2458;SDS011;1241;50.920;6.936;2022-07-22T01:40:02;12.97;;;8.77;;
2458;SDS011;1241;50.920;6.936;2022-07-22T01:42:29;13.57;;;8.80;;
2458;SDS011;1241;50.920;6.936;2022-07-22T01:44:55;12.67;;;9.00;;
2458;SDS011;1241;50.920;6.936;2022-07-22T01:47:21;10.87;;;8.60;;
2458;SDS011;1241;50.920;6.936;2022-07-22T01:49:47;11.37;;;8.90;;
2458;SDS011;1241;50.920;6.936;2022-07-22T01:52:13;18.30;;;9.43;;
2458;SDS011;1241;50.920;6.936;2022-07-22T01:54:41;10.73;;;8.67;;
2458;SDS011;1241;50.920;6.936;2022-07-22T01:57:07;12.40;;;9.07;;
2458;SDS011;1241;50.920;6.936;2022-07-22T01:59:34;10.00;;;8.77;;
2458;SDS011;1241;50.920;6.936;2022-07-22T02:02:01;13.73;;;9.27;;
2458;SDS011;1241;50.920;6.936;2022-07-22T02:04:26;13.13;;;10.10;;
2458;SDS011;1241;50.920;6.936;2022-07-22T02:06:52;15.30;;;9.53;;
2458;SDS011;1241;50.920;6.936;2022-07-22T02:09:18;10.77;;;9.20;;
2458;SDS011;1241;50.920;6.936;2022-07-22T02:11:48;11.53;;;10.30;;
2458;SDS011;1241;50.920;6.936;2022-07-22T02:14:15;13.67;;;11.07;;
2458;SDS011;1241;50.920;6.936;2022-07-22T02:16:41;12.37;;;10.50;;
2458;SDS011;1241;50.920;6.936;2022-07-22T02:19:10;10.80;;;9.50;;
2458;SDS011;1241;50.920;6.936;2022-07-22T02:21:35;12.93;;;10.07;;
2458;SDS011;1241;50.920;6.936;2022-07-22T02:24:02;14.10;;;10.73;;
2458;SDS011;1241;50.920;6.936;2022-07-22T02:26:28;16.07;;;9.50;;
2458;SDS011;1241;50.920;6.936;2022-07-22T02:28:54;11.30;;;9.70;;
2458;SDS011;1241;50.920;6.936;2022-07-22T02:31:21;12.47;;;10.57;;
2458;SDS011;1241;50.920;6.936;2022-07-22T02:33:47;11.60;;;10.40;;
2458;SDS011;1241;50.920;6.936;2022-07-22T02:36:13;11.40;;;10.20;;
2458;SDS011;1241;50.920;6.936;2022-07-22T02:38:40;14.27;;;9.80;;
2458;SDS011;1241;50.920;6.936;2022-07-22T02:41:06;13.47;;;12.10;;
2458;SDS011;1241;50.920;6.936;2022-07-22T02:43:35;11.67;;;9.70;;
2458;SDS011;1241;50.920;6.936;2022-07-22T02:46:02;14.90;;;10.47;;
2458;SDS011;1241;50.920;6.936;2022-07-22T02:48:29;12.27;;;11.00;;
2458;SDS011;1241;50.920;6.936;2022-07-22T02:50:55;12.80;;;11.00;;
2458;SDS011;1241;50.920;6.936;2022-07-22T02:53:23;12.57;;;10.33;;
2458;SDS011;1241;50.920;6.936;2022-07-22T02:55:50;10.57;;;9.47;;
2458;SDS011;1241;50.920;6.936;2022-07-22T02:58:16;15.80;;;10.57;;
2458;SDS011;1241;50.920;6.936;2022-07-22T03:00:43;13.47;;;11.30;;
2458;SDS011;1241;50.920;6.936;2022-07-22T03:03:09;12.83;;;11.43;;
2458;SDS011;1241;50.920;6.936;2022-07-22T03:05:35;16.13;;;13.20;;
2458;SDS011;1241;50.920;6.936;2022-07-22T03:08:22;18.97;;;12.00;;
2458;SDS011;1241;50.920;6.936;2022-07-22T03:10:48;16.40;;;11.80;;
2458;SDS011;1241;50.920;6.936;2022-07-22T03:13:14;14.47;;;10.97;;
2458;SDS011;1241;50.920;6.936;2022-07-22T03:15:39;15.93;;;11.77;;
2458;SDS011;1241;50.920;6.936;2022-07-22T03:18:05;17.50;;;11.10;;
2458;SDS011;1241;50.920;6.936;2022-07-22T03:20:31;16.10;;;11.10;;
2458;SDS011;1241;50.920;6.936;2022-07-22T03:22:59;19.07;;;11.37;;
2458;SDS011;1241;50.920;6.936;2022-07-22T03:25:25;14.00;;;10.70;;
2458;SDS011;1241;50.920;6.936;2022-07-22T03:27:51;14.57;;;10.23;;
2458;SDS011;1241;50.920;6.936;2022-07-22T03:30:17;12.33;;;9.37;;
2458;SDS011;1241;50.920;6.936;2022-07-22T03:32:42;11.90;;;10.00;;
2458;SDS011;1241;50.920;6.936;2022-07-22T03:35:12;12.03;;;9.37;;
2458;SDS011;1241;50.920;6.936;2022-07-22T03:37:41;14.73;;;10.50;;
2458;SDS011;1241;50.920;6.936;2022-07-22T03:40:08;11.33;;;10.23;;
2458;SDS011;1241;50.920;6.936;2022-07-22T03:42:36;11.60;;;10.40;;
2458;SDS011;1241;50.920;6.936;2022-07-22T03:45:02;11.20;;;10.00;;
2458;SDS011;1241;50.920;6.936;2022-07-22T03:47:30;16.40;;;9.80;;
2458;SDS011;1241;50.920;6.936;2022-07-22T03:49:57;17.40;;;10.30;;
2458;SDS011;1241;50.920;6.936;2022-07-22T03:52:26;14.47;;;9.57;;
2458;SDS011;1241;50.920;6.936;2022-07-22T03:54:56;13.10;;;10.50;;
2458;SDS011;1241;50.920;6.936;2022-07-22T03:57:22;13.40;;;9.83;;
2458;SDS011;1241;50.920;6.936;2022-07-22T03:59:57;11.83;;;10.63;;
2458;SDS011;1241;50.920;6.936;2022-07-22T04:02:23;13.00;;;11.03;;
2458;SDS011;1241;50.920;6.936;2022-07-22T04:04:48;16.70;;;10.87;;
2458;SDS011;1241;50.920;6.936;2022-07-22T04:07:16;12.50;;;10.90;;
2458;SDS011;1241;50.920;6.936;2022-07-22T04:09:42;11.63;;;9.37;;
2458;SDS011;1241;50.920;6.936;2022-07-22T04:12:08;11.43;;;10.27;;
2458;SDS011;1241;50.920;6.936;2022-07-22T04:14:46;14.03;;;10.57;;
2458;SDS011;1241;50.920;6.936;2022-07-22T04:17:12;11.20;;;10.03;;
2458;SDS011;1241;50.920;6.936;2022-07-22T04:19:37;13.33;;;9.17;;
2458;SDS011;1241;50.920;6.936;2022-07-22T04:22:14;11.90;;;10.10;;
2458;SDS011;1241;50.920;6.936;2022-07-22T04:24:40;13.40;;;11.13;;
2458;SDS011;1241;50.920;6.936;2022-07-22T04:27:06;13.70;;;10.60;;
2458;SDS011;1241;50.920;6.936;2022-07-22T04:29:33;15.07;;;10.40;;
2458;SDS011;1241;50.920;6.936;2022-07-22T04:31:59;12.80;;;9.90;;
2458;SDS011;1241;50.920;6.936;2022-07-22T04:34:25;14.20;;;9.97;;
2458;SDS011;1241;50.920;6.936;2022-07-22T04:36:51;13.30;;;11.37;;
2458;SDS011;1241;50.920;6.936;2022-07-22T04:39:17;16.00;;;10.57;;
2458;SDS011;1241;50.920;6.936;2022-07-22T04:41:49;14.03;;;9.20;;
2458;SDS011;1241;50.920;6.936;2022-07-22T04:44:17;11.13;;;9.97;;
2458;SDS011;1241;50.920;6.936;2022-07-22T04:46:43;16.83;;;11.17;;
2458;SDS011;1241;50.920;6.936;2022-07-22T04:49:09;22.80;;;12.67;;
2458;SDS011;1241;50.920;6.936;2022-07-22T04:51:35;14.30;;;9.20;;
2458;SDS011;1241;50.920;6.936;2022-07-22T04:54:04;10.23;;;9.30;;
2458;SDS011;1241;50.920;6.936;2022-07-22T04:56:33;14.23;;;10.43;;
2458;SDS011;1241;50.920;6.936;2022-07-22T04:58:58;9.83;;;8.60;;
2458;SDS011;1241;50.920;6.936;2022-07-22T05:01:29;10.23;;;7.70;;
2458;SDS011;1241;50.920;6.936;2022-07-22T05:03:55;12.13;;;8.20;;
2458;SDS011;1241;50.920;6.936;2022-07-22T05:06:22;10.60;;;8.93;;
2458;SDS011;1241;50.920;6.936;2022-07-22T05:08:47;16.63;;;8.57;;
2458;SDS011;1241;50.920;6.936;2022-07-22T05:11:13;10.50;;;8.60;;
2458;SDS011;1241;50.920;6.936;2022-07-22T05:13:39;12.60;;;8.50;;
2458;SDS011;1241;50.920;6.936;2022-07-22T05:16:06;12.97;;;8.20;;
2458;SDS011;1241;50.920;6.936;2022-07-22T05:18:35;10.93;;;9.13;;
2458;SDS011;1241;50.920;6.936;2022-07-22T05:21:01;11.37;;;7.80;;
2458;SDS011;1241;50.920;6.936;2022-07-22T05:23:27;11.33;;;8.50;;
2458;SDS011;1241;50.920;6.936;2022-07-22T05:25:53;17.10;;;10.00;;
2458;SDS011;1241;50.920;6.936;2022-07-22T05:28:19;14.87;;;10.23;;
2458;SDS011;1241;50.920;6.936;2022-07-22T05:30:46;12.37;;;9.33;;
2458;SDS011;1241;50.920;6.936;2022-07-22T05:33:13;11.30;;;7.80;;
2458;SDS011;1241;50.920;6.936;2022-07-22T05:35:59;11.63;;;9.00;;
2458;SDS011;1241;50.920;6.936;2022-07-22T05:38:32;11.67;;;9.93;;
2458;SDS011;1241;50.920;6.936;2022-07-22T05:40:58;16.83;;;11.57;;
2458;SDS011;1241;50.920;6.936;2022-07-22T05:43:24;13.73;;;11.30;;
2458;SDS011;1241;50.920;6.936;2022-07-22T05:45:50;14.93;;;11.20;;
2458;SDS011;1241;50.920;6.936;2022-07-22T05:48:17;15.13;;;11.67;;
2458;SDS011;1241;50.920;6.936;2022-07-22T05:50:43;15.93;;;12.70;;
2458;SDS011;1241;50.920;6.936;2022-07-22T05:53:09;13.70;;;11.10;;
2458;SDS011;1241;50.920;6.936;2022-07-22T05:55:35;13.83;;;9.97;;
2458;SDS011;1241;50.920;6.936;2022-07-22T05:58:01;13.50;;;11.47;;
2458;SDS011;1241;50.920;6.936;2022-07-22T06:00:27;13.83;;;10.83;;
2458;SDS011;1241;50.920;6.936;2022-07-22T06:02:53;15.30;;;11.20;;
2458;SDS011;1241;50.920;6.936;2022-07-22T06:05:20;12.80;;;10.87;;
2458;SDS011;1241;50.920;6.936;2022-07-22T06:07:47;13.73;;;10.83;;
2458;SDS011;1241;50.920;6.936;2022-07-22T06:10:23;13.33;;;11.97;;
2458;SDS011;1241;50.920;6.936;2022-07-22T06:12:50;12.70;;;10.50;;
2458;SDS011;1241;50.920;6.936;2022-07-22T06:15:16;18.27;;;11.40;;
2458;SDS011;1241;50.920;6.936;2022-07-22T06:17:43;14.20;;;10.20;;
2458;SDS011;1241;50.920;6.936;2022-07-22T06:20:10;16.10;;;10.97;;
2458;SDS011;1241;50.920;6.936;2022-07-22T06:22:38;11.80;;;10.00;;
2458;SDS011;1241;50.920;6.936;2022-07-22T06:25:05;17.37;;;10.60;;
2458;SDS011;1241;50.920;6.936;2022-07-22T06:27:32;15.00;;;13.10;;
2458;SDS011;1241;50.920;6.936;2022-07-22T06:29:58;69.83;;;49.27;;
2458;SDS011;1241;50.920;6.936;2022-07-22T06:32:24;18.10;;;14.13;;
2458;SDS011;1241;50.920;6.936;2022-07-22T06:34:50;13.47;;;11.50;;
2458;SDS011;1241;50.920;6.936;2022-07-22T06:37:15;15.37;;;13.27;;
2458;SDS011;1241;50.920;6.936;2022-07-22T06:39:41;16.27;;;12.20;;
2458;SDS011;1241;50.920;6.936;2022-07-22T06:42:20;17.47;;;12.07;;
2458;SDS011;1241;50.920;6.936;2022-07-22T06:45:10;12.93;;;10.43;;
2458;SDS011;1241;50.920;6.936;2022-07-22T06:47:54;15.43;;;11.67;;
2458;SDS011;1241;50.920;6.936;2022-07-22T06:50:22;16.10;;;11.47;;
2458;SDS011;1241;50.920;6.936;2022-07-22T06:52:47;17.03;;;11.07;;
2458;SDS011;1241;50.920;6.936;2022-07-22T06:55:14;11.53;;;9.77;;
2458;SDS011;1241;50.920;6.936;2022-07-22T06:57:47;15.10;;;11.90;;
2458;SDS011;1241;50.920;6.936;2022-07-22T07:00:15;14.83;;;11.63;;
2458;SDS011;1241;50.920;6.936;2022-07-22T07:03:14;15.20;;;12.93;;
2458;SDS011;1241;50.920;6.936;2022-07-22T07:05:41;11.97;;;9.90;;
2458;SDS011;1241;50.920;6.936;2022-07-22T07:08:07;10.50;;;8.80;;
2458;SDS011;1241;50.920;6.936;2022-07-22T07:10:33;11.13;;;9.30;;
2458;SDS011;1241;50.920;6.936;2022-07-22T07:13:05;9.63;;;8.63;;
2458;SDS011;1241;50.920;6.936;2022-07-22T07:15:41;10.17;;;8.27;;
2458;SDS011;1241;50.920;6.936;2022-07-22T07:18:08;8.30;;;7.10;;
2458;SDS011;1241;50.920;6.936;2022-07-22T07:20:35;9.63;;;8.37;;
2458;SDS011;1241;50.920;6.936;2022-07-22T07:23:01;7.27;;;6.53;;
2458;SDS011;1241;50.920;6.936;2022-07-22T07:25:29;8.17;;;7.47;;
2458;SDS011;1241;50.920;6.936;2022-07-22T07:27:55;9.20;;;6.27;;
2458;SDS011;1241;50.920;6.936;2022-07-22T07:30:43;11.57;;;7.93;;
2458;SDS011;1241;50.920;6.936;2022-07-22T07:33:09;10.33;;;6.70;;
2458;SDS011;1241;50.920;6.936;2022-07-22T07:35:35;8.63;;;6.80;;
2458;SDS011;1241;50.920;6.936;2022-07-22T07:38:01;7.63;;;6.33;;
2458;SDS011;1241;50.920;6.936;2022-07-22T07:40:27;7.00;;;6.30;;
2458;SDS011;1241;50.920;6.936;2022-07-22T07:42:53;9.47;;;6.70;;
2458;SDS011;1241;50.920;6.936;2022-07-22T07:45:19;6.63;;;5.63;;
2458;SDS011;1241;50.920;6.936;2022-07-22T07:47:45;10.13;;;6.20;;
2458;SDS011;1241;50.920;6.936;2022-07-22T07:50:12;11.20;;;6.57;;
2458;SDS011;1241;50.920;6.936;2022-07-22T07:52:42;10.20;;;6.57;;
2458;SDS011;1241;50.920;6.936;2022-07-22T07:55:12;8.43;;;7.50;;
2458;SDS011;1241;50.920;6.936;2022-07-22T07:57:40;11.20;;;8.17;;
2458;SDS011;1241;50.920;6.936;2022-07-22T08:00:11;9.33;;;8.00;;
2458;SDS011;1241;50.920;6.936;2022-07-22T08:02:41;9.10;;;7.87;;
2458;SDS011;1241;50.920;6.936;2022-07-22T08:05:09;7.70;;;7.00;;
2458;SDS011;1241;50.920;6.936;2022-07-22T08:07:36;10.37;;;7.80;;
2458;SDS011;1241;50.920;6.936;2022-07-22T08:10:04;7.57;;;6.80;;
2458;SDS011;1241;50.920;6.936;2022-07-22T08:13:03;9.90;;;8.20;;
2458;SDS011;1241;50.920;6.936;2022-07-22T08:15:45;9.27;;;7.67;;
2458;SDS011;1241;50.920;6.936;2022-07-22T08:18:20;10.10;;;8.67;;
2458;SDS011;1241;50.920;6.936;2022-07-22T08:20:46;12.87;;;8.17;;
2458;SDS011;1241;50.920;6.936;2022-07-22T08:23:12;11.20;;;8.33;;
2458;SDS011;1241;50.920;6.936;2022-07-22T08:25:41;10.40;;;8.10;;
2458;SDS011;1241;50.920;6.936;2022-07-22T08:28:07;9.37;;;8.40;;
2458;SDS011;1241;50.920;6.936;2022-07-22T08:30:33;8.93;;;7.70;;
2458;SDS011;1241;50.920;6.936;2022-07-22T08:32:59;8.80;;;7.90;;
2458;SDS011;1241;50.920;6.936;2022-07-22T08:35:25;9.60;;;8.63;;
2458;SDS011;1241;50.920;6.936;2022-07-22T08:37:51;8.47;;;7.63;;
2458;SDS011;1241;50.920;6.936;2022-07-22T08:40:18;9.07;;;7.50;;
2458;SDS011;1241;50.920;6.936;2022-07-22T08:42:45;8.83;;;7.87;;
2458;SDS011;1241;50.920;6.936;2022-07-22T08:45:14;8.80;;;7.90;;
2458;SDS011;1241;50.920;6.936;2022-07-22T08:47:43;9.87;;;7.87;;
2458;SDS011;1241;50.920;6.936;2022-07-22T08:50:29;9.93;;;7.67;;
2458;SDS011;1241;50.920;6.936;2022-07-22T08:52:59;11.90;;;7.97;;
2458;SDS011;1241;50.920;6.936;2022-07-22T08:55:25;11.60;;;8.63;;
2458;SDS011;1241;50.920;6.936;2022-07-22T08:57:51;12.53;;;8.13;;
2458;SDS011;1241;50.920;6.936;2022-07-22T09:00:19;14.57;;;11.93;;
2458;SDS011;1241;50.920;6.936;2022-07-22T09:02:46;13.67;;;8.73;;
2458;SDS011;1241;50.920;6.936;2022-07-22T09:05:14;11.13;;;10.03;;
2458;SDS011;1241;50.920;6.936;2022-07-22T09:07:42;11.53;;;8.37;;
2458;SDS011;1241;50.920;6.936;2022-07-22T09:10:29;10.17;;;8.90;;
2458;SDS011;1241;50.920;6.936;2022-07-22T09:13:00;11.43;;;9.00;;
2458;SDS011;1241;50.920;6.936;2022-07-22T09:15:54;10.40;;;9.40;;
2458;SDS011;1241;50.920;6.936;2022-07-22T09:21:24;9.43;;;8.53;;
2458;SDS011;1241;50.920;6.936;2022-07-22T09:24:07;11.03;;;9.60;;
2458;SDS011;1241;50.920;6.936;2022-07-22T09:26:35;10.90;;;8.10;;
2458;SDS011;1241;50.920;6.936;2022-07-22T09:29:21;11.90;;;10.20;;
2458;SDS011;1241;50.920;6.936;2022-07-22T09:32:10;11.13;;;9.20;;
2458;SDS011;1241;50.920;6.936;2022-07-22T09:34:48;11.60;;;10.27;;
2458;SDS011;1241;50.920;6.936;2022-07-22T09:37:21;9.70;;;8.80;;
2458;SDS011;1241;50.920;6.936;2022-07-22T09:39:47;11.70;;;10.40;;
2458;SDS011;1241;50.920;6.936;2022-07-22T09:42:14;12.40;;;9.37;;
2458;SDS011;1241;50.920;6.936;2022-07-22T09:44:41;10.30;;;9.23;;
2458;SDS011;1241;50.920;6.936;2022-07-22T09:47:28;12.33;;;9.70;;
2458;SDS011;1241;50.920;6.936;2022-07-22T09:50:19;10.10;;;9.20;;
2458;SDS011;1241;50.920;6.936;2022-07-22T09:53:05;9.20;;;8.40;;
2458;SDS011;1241;50.920;6.936;2022-07-22T09:55:35;12.73;;;10.67;;
2458;SDS011;1241;50.920;6.936;2022-07-22T09:58:04;11.70;;;9.77;;
2458;SDS011;1241;50.920;6.936;2022-07-22T10:00:33;10.53;;;9.07;;
2458;SDS011;1241;50.920;6.936;2022-07-22T10:03:00;10.47;;;9.37;;
2458;SDS011;1241;50.920;6.936;2022-07-22T10:05:32;11.63;;;10.40;;
2458;SDS011;1241;50.920;6.936;2022-07-22T10:08:02;12.93;;;11.70;;
2458;SDS011;1241;50.920;6.936;2022-07-22T10:10:30;11.87;;;10.67;;
2458;SDS011;1241;50.920;6.936;2022-07-22T10:12:57;11.40;;;10.20;;
2458;SDS011;1241;50.920;6.936;2022-07-22T10:15:25;12.00;;;10.90;;
2458;SDS011;1241;50.920;6.936;2022-07-22T10:17:53;12.43;;;11.00;;
2458;SDS011;1241;50.920;6.936;2022-07-22T10:20:21;13.40;;;12.00;;
2458;SDS011;1241;50.920;6.936;2022-07-22T10:25:15;12.83;;;11.63;;
2458;SDS011;1241;50.920;6.936;2022-07-22T10:27:45;13.83;;;12.60;;
2458;SDS011;1241;50.920;6.936;2022-07-22T10:30:17;14.17;;;12.80;;
2458;SDS011;1241;50.920;6.936;2022-07-22T10:32:44;13.97;;;12.73;;
2458;SDS011;1241;50.920;6.936;2022-07-22T10:37:36;13.87;;;12.50;;
2458;SDS011;1241;50.920;6.936;2022-07-22T10:47:55;13.00;;;11.70;;
2458;SDS011;1241;50.920;6.936;2022-07-22T10:53:03;12.23;;;11.03;;
2458;SDS011;1241;50.920;6.936;2022-07-22T10:55:30;12.17;;;10.97;;
2458;SDS011;1241;50.920;6.936;2022-07-22T10:57:57;11.63;;;10.50;;
2458;SDS011;1241;50.920;6.936;2022-07-22T11:00:24;13.97;;;11.73;;
2458;SDS011;1241;50.920;6.936;2022-07-22T11:02:50;12.73;;;11.43;;
2458;SDS011;1241;50.920;6.936;2022-07-22T11:05:25;13.30;;;11.90;;
2458;SDS011;1241;50.920;6.936;2022-07-22T11:07:51;13.27;;;11.97;;
2458;SDS011;1241;50.920;6.936;2022-07-22T11:10:18;12.70;;;11.03;;
2458;SDS011;1241;50.920;6.936;2022-07-22T11:12:45;11.63;;;10.53;;
2458;SDS011;1241;50.920;6.936;2022-07-22T11:15:12;11.77;;;10.57;;
2458;SDS011;1241;50.920;6.936;2022-07-22T11:17:39;13.43;;;12.10;;
2458;SDS011;1241;50.920;6.936;2022-07-22T11:20:06;12.10;;;10.77;;
2458;SDS011;1241;50.920;6.936;2022-07-22T11:22:34;12.40;;;11.20;;
2458;SDS011;1241;50.920;6.936;2022-07-22T11:25:00;12.80;;;10.77;;
2458;SDS011;1241;50.920;6.936;2022-07-22T11:27:29;12.30;;;11.13;;
2458;SDS011;1241;50.920;6.936;2022-07-22T11:29:55;13.50;;;12.10;;
2458;SDS011;1241;50.920;6.936;2022-07-22T11:32:23;13.27;;;11.83;;
2458;SDS011;1241;50.920;6.936;2022-07-22T11:34:50;13.27;;;12.07;;
2458;SDS011;1241;50.920;6.936;2022-07-22T11:37:17;15.30;;;11.87;;
2458;SDS011;1241;50.920;6.936;2022-07-22T11:39:45;11.47;;;10.37;;
2458;SDS011;1241;50.920;6.936;2022-07-22T11:42:11;12.17;;;11.00;;
2458;SDS011;1241;50.920;6.936;2022-07-22T11:44:38;12.43;;;11.30;;
2458;SDS011;1241;50.920;6.936;2022-07-22T11:47:05;14.43;;;11.43;;
2458;SDS011;1241;50.920;6.936;2022-07-22T11:49:33;12.37;;;11.17;;
2458;SDS011;1241;50.920;6.936;2022-07-22T11:52:04;12.90;;;11.60;;
2458;SDS011;1241;50.920;6.936;2022-07-22T11:54:37;16.37;;;12.17;;
2458;SDS011;1241;50.920;6.936;2022-07-22T11:57:04;13.53;;;12.23;;
2458;SDS011;1241;50.920;6.936;2022-07-22T11:59:31;17.17;;;12.53;;
2458;SDS011;1241;50.920;6.936;2022-07-22T12:01:58;14.27;;;12.87;;
2458;SDS011;1241;50.920;6.936;2022-07-22T12:04:24;15.63;;;13.87;;
2458;SDS011;1241;50.920;6.936;2022-07-22T12:06:51;13.70;;;12.17;;
2458;SDS011;1241;50.920;6.936;2022-07-22T12:11:51;14.97;;;13.57;;
2458;SDS011;1241;50.920;6.936;2022-07-22T12:14:23;14.17;;;12.77;;
2458;SDS011;1241;50.920;6.936;2022-07-22T12:17:05;13.53;;;12.33;;
2458;SDS011;1241;50.920;6.936;2022-07-22T12:19:32;15.30;;;13.90;;
2458;SDS011;1241;50.920;6.936;2022-07-22T12:24:34;16.13;;;14.63;;
2458;SDS011;1241;50.920;6.936;2022-07-22T12:27:05;16.03;;;14.53;;
2458;SDS011;1241;50.920;6.936;2022-07-22T12:29:43;18.60;;;14.30;;
2458;SDS011;1241;50.920;6.936;2022-07-22T12:32:31;15.20;;;13.63;;
2458;SDS011;1241;50.920;6.936;2022-07-22T12:35:14;16.10;;;14.43;;
2458;SDS011;1241;50.920;6.936;2022-07-22T12:45:32;14.73;;;13.27;;
2458;SDS011;1241;50.920;6.936;2022-07-22T12:53:11;16.50;;;14.87;;
2458;SDS011;1241;50.920;6.936;2022-07-22T12:55:39;15.00;;;13.60;;
2458;SDS011;1241;50.920;6.936;2022-07-22T12:58:23;15.83;;;14.30;;
2458;SDS011;1241;50.920;6.936;2022-07-22T13:00:54;15.33;;;13.73;;
2458;SDS011;1241;50.920;6.936;2022-07-22T13:03:21;15.30;;;13.93;;
2458;SDS011;1241;50.920;6.936;2022-07-22T13:05:51;15.47;;;14.03;;
2458;SDS011;1241;50.920;6.936;2022-07-22T13:08:21;15.07;;;13.67;;
2458;SDS011;1241;50.920;6.936;2022-07-22T13:10:49;15.10;;;13.80;;
2458;SDS011;1241;50.920;6.936;2022-07-22T13:13:16;16.03;;;14.40;;
2458;SDS011;1241;50.920;6.936;2022-07-22T13:15:42;15.53;;;13.80;;
2458;SDS011;1241;50.920;6.936;2022-07-22T13:18:08;17.53;;;15.83;;
2458;SDS011;1241;50.920;6.936;2022-07-22T13:20:34;18.57;;;16.67;;
2458;SDS011;1241;50.920;6.936;2022-07-22T13:23:00;16.63;;;14.10;;
2458;SDS011;1241;50.920;6.936;2022-07-22T13:25:26;15.67;;;14.17;;
2458;SDS011;1241;50.920;6.936;2022-07-22T13:27:52;14.70;;;13.30;;
2458;SDS011;1241;50.920;6.936;2022-07-22T13:30:18;15.57;;;13.90;;
2458;SDS011;1241;50.920;6.936;2022-07-22T13:32:44;15.60;;;14.30;;
2458;SDS011;1241;50.920;6.936;2022-07-22T13:35:10;15.70;;;14.30;;
2458;SDS011;1241;50.920;6.936;2022-07-22T13:37:36;16.30;;;14.73;;
2458;SDS011;1241;50.920;6.936;2022-07-22T13:40:02;16.37;;;14.67;;
2458;SDS011;1241;50.920;6.936;2022-07-22T13:42:28;16.97;;;15.37;;
2458;SDS011;1241;50.920;6.936;2022-07-22T13:44:54;17.80;;;16.27;;
2458;SDS011;1241;50.920;6.936;2022-07-22T13:47:20;15.43;;;13.83;;
2458;SDS011;1241;50.920;6.936;2022-07-22T13:49:46;17.47;;;15.43;;
2458;SDS011;1241;50.920;6.936;2022-07-22T13:52:12;19.13;;;15.30;;
2458;SDS011;1241;50.920;6.936;2022-07-22T13:54:38;17.73;;;16.07;;
2458;SDS011;1241;50.920;6.936;2022-07-22T13:57:05;17.47;;;15.80;;
2458;SDS011;1241;50.920;6.936;2022-07-22T13:59:31;16.67;;;15.07;;
2458;SDS011;1241;50.920;6.936;2022-07-22T14:01:57;18.33;;;16.53;;
2458;SDS011;1241;50.920;6.936;2022-07-22T14:04:24;19.20;;;17.30;;
2458;SDS011;1241;50.920;6.936;2022-07-22T14:06:50;18.70;;;16.60;;
2458;SDS011;1241;50.920;6.936;2022-07-22T14:09:15;20.73;;;18.90;;
2458;SDS011;1241;50.920;6.936;2022-07-22T14:11:41;20.27;;;18.17;;
2458;SDS011;1241;50.920;6.936;2022-07-22T14:14:07;19.10;;;17.30;;
2458;SDS011;1241;50.920;6.936;2022-07-22T14:16:34;18.10;;;16.30;;
2458;SDS011;1241;50.920;6.936;2022-07-22T14:19:04;17.40;;;15.90;;
2458;SDS011;1241;50.920;6.936;2022-07-22T14:21:35;18.57;;;16.87;;
2458;SDS011;1241;50.920;6.936;2022-07-22T14:24:03;19.93;;;17.87;;
2458;SDS011;1241;50.920;6.936;2022-07-22T14:26:30;17.47;;;15.27;;
2458;SDS011;1241;50.920;6.936;2022-07-22T14:28:56;18.77;;;16.90;;
2458;SDS011;1241;50.920;6.936;2022-07-22T14:31:22;16.47;;;14.80;;
2458;SDS011;1241;50.920;6.936;2022-07-22T14:33:48;17.37;;;15.53;;
2458;SDS011;1241;50.920;6.936;2022-07-22T14:36:14;15.70;;;14.13;;
2458;SDS011;1241;50.920;6.936;2022-07-22T14:38:40;18.13;;;16.27;;
2458;SDS011;1241;50.920;6.936;2022-07-22T14:41:06;15.90;;;14.20;;
2458;SDS011;1241;50.920;6.936;2022-07-22T14:43:33;15.40;;;13.93;;
2458;SDS011;1241;50.920;6.936;2022-07-22T14:45:59;17.03;;;14.50;;
2458;SDS011;1241;50.920;6.936;2022-07-22T14:48:26;15.53;;;13.97;;
2458;SDS011;1241;50.920;6.936;2022-07-22T14:50:53;17.37;;;15.60;;
2458;SDS011;1241;50.920;6.936;2022-07-22T14:53:18;16.60;;;14.77;;
2458;SDS011;1241;50.920;6.936;2022-07-22T14:55:44;16.03;;;14.60;;
2458;SDS011;1241;50.920;6.936;2022-07-22T14:58:10;16.87;;;15.33;;
2458;SDS011;1241;50.920;6.936;2022-07-22T15:00:36;16.40;;;14.70;;
2458;SDS011;1241;50.920;6.936;2022-07-22T15:03:01;18.07;;;13.97;;
2458;SDS011;1241;50.920;6.936;2022-07-22T15:05:27;16.50;;;14.90;;
2458;SDS011;1241;50.920;6.936;2022-07-22T15:07:53;15.07;;;13.80;;
2458;SDS011;1241;50.920;6.936;2022-07-22T15:10:19;16.57;;;15.20;;
2458;SDS011;1241;50.920;6.936;2022-07-22T15:12:44;14.17;;;12.67;;
2458;SDS011;1241;50.920;6.936;2022-07-22T15:15:10;15.90;;;14.50;;
2458;SDS011;1241;50.920;6.936;2022-07-22T15:17:36;14.73;;;13.20;;
2458;SDS011;1241;50.920;6.936;2022-07-22T15:20:04;14.20;;;12.90;;
2458;SDS011;1241;50.920;6.936;2022-07-22T15:22:31;16.10;;;14.53;;
2458;SDS011;1241;50.920;6.936;2022-07-22T15:24:57;19.10;;;14.40;;
2458;SDS011;1241;50.920;6.936;2022-07-22T15:27:23;15.07;;;13.63;;
2458;SDS011;1241;50.920;6.936;2022-07-22T15:29:49;15.40;;;13.90;;
2458;SDS011;1241;50.920;6.936;2022-07-22T15:32:15;15.20;;;13.70;;
2458;SDS011;1241;50.920;6.936;2022-07-22T15:34:41;15.70;;;14.27;;
2458;SDS011;1241;50.920;6.936;2022-07-22T15:37:07;17.73;;;15.10;;
2458;SDS011;1241;50.920;6.936;2022-07-22T15:39:33;16.77;;;15.00;;